Terminal Aerodrome Forecast
Issued by NWS Springfield, MO

Home | Current Version | Previous Version | Text Only | Print | Product List | Glossary On
Versions: 1 2 3 4 5 6 7 8 9 10 11 12 13 14 15 16 17 18
000
FTUS43 KSGF 212037 AAA
TAFSGF
TAF AMD
KSGF 212037Z 2121/2218 19015G28KT P6SM BKN040
     FM220100 17016G26KT 6SM -SHRA VCTS OVC025CB
     FM220600 20012KT P6SM SCT040 SCT100
     FM221300 23014G22KT P6SM BKN025=

USA.gov is the U.S. government's official web portal to all federal, state and local government web resources and services.